Duncan Falls, Ohio
Current Conditions -  °F | °C
As of 1:11 PM on Thursday 23 Oct 2014 (Local Time) from KZZV Reporting Station
Scattered Clouds Scattered Clouds  
Wind Chill: 54°   Ceiling: Unl
Heat Index: 54°   Visibility: 10mi
Dew Point: 42°   Wind: 6mph
Humidity: 64%   Direction: 280°W
Pressure: 30.18"   Gusts: NA
Location:  39.87°N, 81.91°W
Report Text: KZZV 231711Z AUTO 28005KT 10SM SCT024 12/06 A3018 RMK AO2 T01220056
Loading
Personal Weather Stations






























Interactive Weather Map
Tropical Storm Tracking
New forecast layout! Learn more

10-Day Weather Forecast

Advertisements
Track Severe Weather on mobile